sensor_id;sensor_type;location;lat;lon;timestamp;P1;durP1;ratioP1;P2;durP2;ratioP2
25509;SDS011;13413;52.336;21.200;2023-02-15T00:12:37;119.40;;;71.70;;
25509;SDS011;13413;52.336;21.200;2023-02-15T00:15:30;119.70;;;66.40;;
25509;SDS011;13413;52.336;21.200;2023-02-15T00:18:24;111.90;;;64.30;;
25509;SDS011;13413;52.336;21.200;2023-02-15T00:21:18;102.10;;;60.20;;
25509;SDS011;13413;52.336;21.200;2023-02-15T00:24:12;107.70;;;62.20;;
25509;SDS011;13413;52.336;21.200;2023-02-15T00:27:08;110.70;;;62.00;;
25509;SDS011;13413;52.336;21.200;2023-02-15T00:30:02;112.90;;;62.10;;
25509;SDS011;13413;52.336;21.200;2023-02-15T00:32:57;117.60;;;66.50;;
25509;SDS011;13413;52.336;21.200;2023-02-15T00:35:56;112.00;;;64.30;;
25509;SDS011;13413;52.336;21.200;2023-02-15T00:38:50;114.20;;;62.00;;
25509;SDS011;13413;52.336;21.200;2023-02-15T00:41:44;73.70;;;43.20;;
25509;SDS011;13413;52.336;21.200;2023-02-15T00:44:38;107.00;;;60.20;;
25509;SDS011;13413;52.336;21.200;2023-02-15T00:50:25;127.70;;;70.80;;
25509;SDS011;13413;52.336;21.200;2023-02-15T00:53:19;112.00;;;64.70;;
25509;SDS011;13413;52.336;21.200;2023-02-15T00:59:07;103.80;;;57.40;;
25509;SDS011;13413;52.336;21.200;2023-02-15T01:02:01;113.30;;;62.00;;
25509;SDS011;13413;52.336;21.200;2023-02-15T01:04:55;119.10;;;61.30;;
25509;SDS011;13413;52.336;21.200;2023-02-15T01:07:49;80.60;;;45.10;;
25509;SDS011;13413;52.336;21.200;2023-02-15T01:10:43;106.90;;;59.50;;
25509;SDS011;13413;52.336;21.200;2023-02-15T01:13:41;115.30;;;59.10;;
25509;SDS011;13413;52.336;21.200;2023-02-15T01:16:34;108.40;;;58.80;;
25509;SDS011;13413;52.336;21.200;2023-02-15T01:19:29;119.20;;;61.30;;
25509;SDS011;13413;52.336;21.200;2023-02-15T01:22:24;117.60;;;64.10;;
25509;SDS011;13413;52.336;21.200;2023-02-15T01:25:19;120.20;;;62.50;;
25509;SDS011;13413;52.336;21.200;2023-02-15T01:28:13;118.10;;;64.20;;
25509;SDS011;13413;52.336;21.200;2023-02-15T01:31:08;121.70;;;64.50;;
25509;SDS011;13413;52.336;21.200;2023-02-15T01:34:04;114.60;;;62.20;;
25509;SDS011;13413;52.336;21.200;2023-02-15T01:36:59;75.60;;;44.20;;
25509;SDS011;13413;52.336;21.200;2023-02-15T01:39:52;107.50;;;61.20;;
25509;SDS011;13413;52.336;21.200;2023-02-15T01:42:49;110.20;;;59.30;;
25509;SDS011;13413;52.336;21.200;2023-02-15T01:45:43;112.30;;;60.80;;
25509;SDS011;13413;52.336;21.200;2023-02-15T01:48:42;108.50;;;60.00;;
25509;SDS011;13413;52.336;21.200;2023-02-15T01:51:38;106.50;;;59.10;;
25509;SDS011;13413;52.336;21.200;2023-02-15T01:54:36;106.90;;;57.60;;
25509;SDS011;13413;52.336;21.200;2023-02-15T01:57:33;110.80;;;60.30;;
25509;SDS011;13413;52.336;21.200;2023-02-15T02:00:27;113.40;;;60.80;;
25509;SDS011;13413;52.336;21.200;2023-02-15T02:03:24;114.00;;;59.10;;
25509;SDS011;13413;52.336;21.200;2023-02-15T02:06:27;118.60;;;59.80;;
25509;SDS011;13413;52.336;21.200;2023-02-15T02:09:21;110.80;;;58.40;;
25509;SDS011;13413;52.336;21.200;2023-02-15T02:12:15;102.40;;;55.90;;
25509;SDS011;13413;52.336;21.200;2023-02-15T02:15:11;112.50;;;57.60;;
25509;SDS011;13413;52.336;21.200;2023-02-15T02:18:10;110.80;;;57.30;;
25509;SDS011;13413;52.336;21.200;2023-02-15T02:21:19;109.10;;;58.00;;
25509;SDS011;13413;52.336;21.200;2023-02-15T02:33:32;142.30;;;70.40;;
25509;SDS011;13413;52.336;21.200;2023-02-15T02:36:35;133.50;;;67.40;;
25509;SDS011;13413;52.336;21.200;2023-02-15T02:39:39;122.00;;;66.80;;
25509;SDS011;13413;52.336;21.200;2023-02-15T02:42:40;119.20;;;61.50;;
25509;SDS011;13413;52.336;21.200;2023-02-15T02:45:42;127.60;;;64.40;;
25509;SDS011;13413;52.336;21.200;2023-02-15T02:48:40;125.40;;;63.20;;
25509;SDS011;13413;52.336;21.200;2023-02-15T02:51:34;109.50;;;60.80;;
25509;SDS011;13413;52.336;21.200;2023-02-15T02:54:29;124.00;;;61.70;;
25509;SDS011;13413;52.336;21.200;2023-02-15T02:57:24;123.80;;;62.00;;
25509;SDS011;13413;52.336;21.200;2023-02-15T03:00:22;123.00;;;61.50;;
25509;SDS011;13413;52.336;21.200;2023-02-15T03:03:18;124.00;;;63.60;;
25509;SDS011;13413;52.336;21.200;2023-02-15T03:06:18;125.60;;;62.30;;
25509;SDS011;13413;52.336;21.200;2023-02-15T03:09:18;122.00;;;63.10;;
25509;SDS011;13413;52.336;21.200;2023-02-15T03:12:17;117.20;;;60.20;;
25509;SDS011;13413;52.336;21.200;2023-02-15T03:15:14;121.50;;;61.90;;
25509;SDS011;13413;52.336;21.200;2023-02-15T03:18:12;125.20;;;61.80;;
25509;SDS011;13413;52.336;21.200;2023-02-15T03:21:09;119.50;;;59.70;;
25509;SDS011;13413;52.336;21.200;2023-02-15T03:24:06;123.90;;;63.20;;
25509;SDS011;13413;52.336;21.200;2023-02-15T03:27:04;118.30;;;62.80;;
25509;SDS011;13413;52.336;21.200;2023-02-15T03:30:03;125.10;;;62.40;;
25509;SDS011;13413;52.336;21.200;2023-02-15T03:35:57;120.30;;;61.50;;
25509;SDS011;13413;52.336;21.200;2023-02-15T03:39:01;137.90;;;67.70;;
25509;SDS011;13413;52.336;21.200;2023-02-15T03:42:00;130.20;;;68.00;;
25509;SDS011;13413;52.336;21.200;2023-02-15T03:48:15;134.10;;;71.70;;
25509;SDS011;13413;52.336;21.200;2023-02-15T03:51:14;129.50;;;66.00;;
25509;SDS011;13413;52.336;21.200;2023-02-15T03:54:12;124.90;;;66.70;;
25509;SDS011;13413;52.336;21.200;2023-02-15T03:57:10;116.10;;;65.20;;
25509;SDS011;13413;52.336;21.200;2023-02-15T04:00:09;118.20;;;64.70;;
25509;SDS011;13413;52.336;21.200;2023-02-15T04:03:20;130.80;;;68.50;;
25509;SDS011;13413;52.336;21.200;2023-02-15T04:06:22;128.40;;;69.70;;
25509;SDS011;13413;52.336;21.200;2023-02-15T04:09:17;123.10;;;67.70;;
25509;SDS011;13413;52.336;21.200;2023-02-15T04:12:11;135.40;;;77.20;;
25509;SDS011;13413;52.336;21.200;2023-02-15T04:15:06;140.70;;;76.90;;
25509;SDS011;13413;52.336;21.200;2023-02-15T04:18:04;122.60;;;70.80;;
25509;SDS011;13413;52.336;21.200;2023-02-15T04:20:58;122.00;;;67.60;;
25509;SDS011;13413;52.336;21.200;2023-02-15T04:23:52;121.10;;;69.30;;
25509;SDS011;13413;52.336;21.200;2023-02-15T04:26:46;109.00;;;63.80;;
25509;SDS011;13413;52.336;21.200;2023-02-15T04:29:40;116.00;;;62.10;;
25509;SDS011;13413;52.336;21.200;2023-02-15T04:32:34;111.90;;;62.30;;
25509;SDS011;13413;52.336;21.200;2023-02-15T04:35:28;103.20;;;61.40;;
25509;SDS011;13413;52.336;21.200;2023-02-15T04:38:22;100.70;;;58.10;;
25509;SDS011;13413;52.336;21.200;2023-02-15T04:41:16;108.00;;;60.70;;
25509;SDS011;13413;52.336;21.200;2023-02-15T04:44:10;100.10;;;55.80;;
25509;SDS011;13413;52.336;21.200;2023-02-15T04:55:58;108.10;;;61.60;;
25509;SDS011;13413;52.336;21.200;2023-02-15T04:58:52;113.90;;;63.20;;
25509;SDS011;13413;52.336;21.200;2023-02-15T05:01:45;105.10;;;59.80;;
25509;SDS011;13413;52.336;21.200;2023-02-15T05:04:39;102.60;;;55.40;;
25509;SDS011;13413;52.336;21.200;2023-02-15T05:07:34;98.40;;;58.80;;
25509;SDS011;13413;52.336;21.200;2023-02-15T05:10:28;105.60;;;59.20;;
25509;SDS011;13413;52.336;21.200;2023-02-15T05:13:21;99.60;;;56.00;;
25509;SDS011;13413;52.336;21.200;2023-02-15T05:16:15;95.70;;;56.40;;
25509;SDS011;13413;52.336;21.200;2023-02-15T05:19:09;94.80;;;52.30;;
25509;SDS011;13413;52.336;21.200;2023-02-15T05:22:04;99.80;;;57.00;;
25509;SDS011;13413;52.336;21.200;2023-02-15T05:24:57;95.60;;;52.30;;
25509;SDS011;13413;52.336;21.200;2023-02-15T05:27:51;90.10;;;49.70;;
25509;SDS011;13413;52.336;21.200;2023-02-15T05:30:45;82.50;;;48.10;;
25509;SDS011;13413;52.336;21.200;2023-02-15T05:33:39;86.40;;;49.20;;
25509;SDS011;13413;52.336;21.200;2023-02-15T05:36:34;91.70;;;50.60;;
25509;SDS011;13413;52.336;21.200;2023-02-15T05:39:27;85.60;;;50.00;;
25509;SDS011;13413;52.336;21.200;2023-02-15T05:42:21;75.80;;;44.20;;
25509;SDS011;13413;52.336;21.200;2023-02-15T05:45:14;79.80;;;44.40;;
25509;SDS011;13413;52.336;21.200;2023-02-15T05:48:09;83.10;;;45.30;;
25509;SDS011;13413;52.336;21.200;2023-02-15T05:51:03;117.60;;;62.90;;
25509;SDS011;13413;52.336;21.200;2023-02-15T05:53:59;290.80;;;130.80;;
25509;SDS011;13413;52.336;21.200;2023-02-15T05:56:53;156.80;;;73.40;;
25509;SDS011;13413;52.336;21.200;2023-02-15T05:59:47;137.90;;;65.30;;
25509;SDS011;13413;52.336;21.200;2023-02-15T06:02:40;99.00;;;51.50;;
25509;SDS011;13413;52.336;21.200;2023-02-15T06:05:34;88.10;;;47.90;;
25509;SDS011;13413;52.336;21.200;2023-02-15T06:11:35;84.50;;;44.40;;
25509;SDS011;13413;52.336;21.200;2023-02-15T06:14:32;77.30;;;41.90;;
25509;SDS011;13413;52.336;21.200;2023-02-15T06:17:26;80.70;;;41.90;;
25509;SDS011;13413;52.336;21.200;2023-02-15T06:20:20;81.40;;;41.30;;
25509;SDS011;13413;52.336;21.200;2023-02-15T06:23:15;81.00;;;44.00;;
25509;SDS011;13413;52.336;21.200;2023-02-15T06:26:08;78.50;;;43.60;;
25509;SDS011;13413;52.336;21.200;2023-02-15T06:29:02;90.80;;;48.20;;
25509;SDS011;13413;52.336;21.200;2023-02-15T06:31:55;108.20;;;67.80;;
25509;SDS011;13413;52.336;21.200;2023-02-15T06:34:49;89.30;;;52.40;;
25509;SDS011;13413;52.336;21.200;2023-02-15T06:37:44;82.00;;;45.40;;
25509;SDS011;13413;52.336;21.200;2023-02-15T06:40:38;88.60;;;52.20;;
25509;SDS011;13413;52.336;21.200;2023-02-15T06:43:32;90.30;;;48.70;;
25509;SDS011;13413;52.336;21.200;2023-02-15T06:46:25;86.90;;;45.80;;
25509;SDS011;13413;52.336;21.200;2023-02-15T06:49:20;97.90;;;47.80;;
25509;SDS011;13413;52.336;21.200;2023-02-15T06:52:14;78.30;;;45.60;;
25509;SDS011;13413;52.336;21.200;2023-02-15T06:55:08;88.60;;;47.40;;
25509;SDS011;13413;52.336;21.200;2023-02-15T06:58:02;93.40;;;49.50;;
25509;SDS011;13413;52.336;21.200;2023-02-15T07:00:56;96.90;;;54.10;;
25509;SDS011;13413;52.336;21.200;2023-02-15T07:03:50;67.20;;;37.10;;
25509;SDS011;13413;52.336;21.200;2023-02-15T07:15:10;167.10;;;112.60;;
25509;SDS011;13413;52.336;21.200;2023-02-15T07:18:05;136.90;;;79.60;;
25509;SDS011;13413;52.336;21.200;2023-02-15T07:20:59;103.20;;;60.80;;
25509;SDS011;13413;52.336;21.200;2023-02-15T07:23:55;86.00;;;49.60;;
25509;SDS011;13413;52.336;21.200;2023-02-15T07:26:49;82.20;;;46.10;;
25509;SDS011;13413;52.336;21.200;2023-02-15T07:29:46;76.10;;;43.30;;
25509;SDS011;13413;52.336;21.200;2023-02-15T07:32:40;83.20;;;43.60;;
25509;SDS011;13413;52.336;21.200;2023-02-15T07:38:27;65.60;;;37.80;;
25509;SDS011;13413;52.336;21.200;2023-02-15T07:41:23;74.30;;;41.80;;
25509;SDS011;13413;52.336;21.200;2023-02-15T07:44:17;65.30;;;34.90;;
25509;SDS011;13413;52.336;21.200;2023-02-15T07:47:11;86.20;;;57.10;;
25509;SDS011;13413;52.336;21.200;2023-02-15T07:50:06;87.30;;;44.70;;
25509;SDS011;13413;52.336;21.200;2023-02-15T07:55:54;84.00;;;47.10;;
25509;SDS011;13413;52.336;21.200;2023-02-15T07:58:50;79.40;;;44.10;;
25509;SDS011;13413;52.336;21.200;2023-02-15T08:01:44;94.40;;;50.70;;
25509;SDS011;13413;52.336;21.200;2023-02-15T08:04:38;211.10;;;174.80;;
25509;SDS011;13413;52.336;21.200;2023-02-15T08:07:32;119.20;;;75.60;;
25509;SDS011;13413;52.336;21.200;2023-02-15T08:10:26;76.40;;;43.90;;
25509;SDS011;13413;52.336;21.200;2023-02-15T08:13:20;98.90;;;55.70;;
25509;SDS011;13413;52.336;21.200;2023-02-15T08:16:14;89.00;;;50.00;;
25509;SDS011;13413;52.336;21.200;2023-02-15T08:19:09;90.00;;;49.60;;
25509;SDS011;13413;52.336;21.200;2023-02-15T08:22:04;97.30;;;53.10;;
25509;SDS011;13413;52.336;21.200;2023-02-15T08:25:03;92.70;;;51.20;;
25509;SDS011;13413;52.336;21.200;2023-02-15T08:27:57;117.70;;;60.70;;
25509;SDS011;13413;52.336;21.200;2023-02-15T08:30:51;108.30;;;58.40;;
25509;SDS011;13413;52.336;21.200;2023-02-15T08:33:45;97.40;;;57.20;;
25509;SDS011;13413;52.336;21.200;2023-02-15T08:36:40;101.50;;;58.40;;
25509;SDS011;13413;52.336;21.200;2023-02-15T08:39:34;83.50;;;49.00;;
25509;SDS011;13413;52.336;21.200;2023-02-15T08:42:28;99.60;;;54.40;;
25509;SDS011;13413;52.336;21.200;2023-02-15T08:45:24;81.60;;;45.00;;
25509;SDS011;13413;52.336;21.200;2023-02-15T08:48:18;79.90;;;45.20;;
25509;SDS011;13413;52.336;21.200;2023-02-15T08:51:13;102.40;;;56.80;;
25509;SDS011;13413;52.336;21.200;2023-02-15T08:54:08;93.80;;;52.20;;
25509;SDS011;13413;52.336;21.200;2023-02-15T08:57:04;83.30;;;45.20;;
25509;SDS011;13413;52.336;21.200;2023-02-15T08:59:58;56.40;;;32.10;;
25509;SDS011;13413;52.336;21.200;2023-02-15T09:02:52;73.40;;;42.60;;
25509;SDS011;13413;52.336;21.200;2023-02-15T09:05:46;81.00;;;46.20;;
25509;SDS011;13413;52.336;21.200;2023-02-15T09:08:40;71.50;;;44.10;;
25509;SDS011;13413;52.336;21.200;2023-02-15T09:11:35;75.80;;;46.00;;
25509;SDS011;13413;52.336;21.200;2023-02-15T09:14:30;86.00;;;49.00;;
25509;SDS011;13413;52.336;21.200;2023-02-15T09:17:24;79.30;;;47.50;;
25509;SDS011;13413;52.336;21.200;2023-02-15T09:20:18;87.80;;;49.30;;
25509;SDS011;13413;52.336;21.200;2023-02-15T09:23:12;84.60;;;45.00;;
25509;SDS011;13413;52.336;21.200;2023-02-15T09:32:09;84.30;;;46.70;;
25509;SDS011;13413;52.336;21.200;2023-02-15T09:35:07;81.60;;;44.00;;
25509;SDS011;13413;52.336;21.200;2023-02-15T09:38:01;76.20;;;43.00;;
25509;SDS011;13413;52.336;21.200;2023-02-15T09:40:57;73.20;;;41.00;;
25509;SDS011;13413;52.336;21.200;2023-02-15T09:44:02;60.50;;;34.50;;
25509;SDS011;13413;52.336;21.200;2023-02-15T09:47:09;78.00;;;43.80;;
25509;SDS011;13413;52.336;21.200;2023-02-15T09:50:19;84.50;;;47.80;;
25509;SDS011;13413;52.336;21.200;2023-02-15T09:53:36;78.30;;;43.90;;
25509;SDS011;13413;52.336;21.200;2023-02-15T09:56:42;79.60;;;45.20;;
25509;SDS011;13413;52.336;21.200;2023-02-15T09:59:44;84.80;;;47.30;;
25509;SDS011;13413;52.336;21.200;2023-02-15T10:02:56;100.40;;;51.20;;
25509;SDS011;13413;52.336;21.200;2023-02-15T10:06:09;68.40;;;39.30;;
25509;SDS011;13413;52.336;21.200;2023-02-15T10:09:18;86.80;;;46.40;;
25509;SDS011;13413;52.336;21.200;2023-02-15T10:12:39;83.90;;;47.10;;
25509;SDS011;13413;52.336;21.200;2023-02-15T10:15:50;84.30;;;47.00;;
25509;SDS011;13413;52.336;21.200;2023-02-15T10:18:55;88.80;;;46.70;;
25509;SDS011;13413;52.336;21.200;2023-02-15T10:21:58;79.80;;;44.50;;
25509;SDS011;13413;52.336;21.200;2023-02-15T10:25:16;79.30;;;44.40;;
25509;SDS011;13413;52.336;21.200;2023-02-15T10:31:16;84.80;;;44.00;;
25509;SDS011;13413;52.336;21.200;2023-02-15T10:34:19;75.20;;;40.20;;
25509;SDS011;13413;52.336;21.200;2023-02-15T10:37:31;81.60;;;41.50;;
25509;SDS011;13413;52.336;21.200;2023-02-15T10:40:40;77.70;;;40.50;;
25509;SDS011;13413;52.336;21.200;2023-02-15T10:47:11;72.70;;;39.50;;
25509;SDS011;13413;52.336;21.200;2023-02-15T10:50:26;70.50;;;38.60;;
25509;SDS011;13413;52.336;21.200;2023-02-15T10:53:38;70.10;;;36.30;;
25509;SDS011;13413;52.336;21.200;2023-02-15T10:56:45;69.60;;;34.80;;
25509;SDS011;13413;52.336;21.200;2023-02-15T10:59:53;67.80;;;36.70;;
25509;SDS011;13413;52.336;21.200;2023-02-15T11:03:02;70.20;;;38.70;;
25509;SDS011;13413;52.336;21.200;2023-02-15T11:06:10;80.50;;;40.90;;
25509;SDS011;13413;52.336;21.200;2023-02-15T11:09:08;72.30;;;39.20;;
25509;SDS011;13413;52.336;21.200;2023-02-15T11:12:04;73.20;;;39.90;;
25509;SDS011;13413;52.336;21.200;2023-02-15T11:15:09;72.60;;;39.40;;
25509;SDS011;13413;52.336;21.200;2023-02-15T11:18:13;69.10;;;37.40;;
25509;SDS011;13413;52.336;21.200;2023-02-15T11:21:13;61.90;;;34.90;;
25509;SDS011;13413;52.336;21.200;2023-02-15T11:24:13;67.70;;;36.00;;
25509;SDS011;13413;52.336;21.200;2023-02-15T11:27:15;65.70;;;34.80;;
25509;SDS011;13413;52.336;21.200;2023-02-15T11:30:13;63.90;;;32.30;;
25509;SDS011;13413;52.336;21.200;2023-02-15T11:33:13;63.60;;;31.50;;
25509;SDS011;13413;52.336;21.200;2023-02-15T11:36:11;61.20;;;31.00;;
25509;SDS011;13413;52.336;21.200;2023-02-15T11:39:09;56.10;;;30.00;;
25509;SDS011;13413;52.336;21.200;2023-02-15T11:42:09;52.90;;;29.10;;
25509;SDS011;13413;52.336;21.200;2023-02-15T11:56:25;70.00;;;35.20;;
25509;SDS011;13413;52.336;21.200;2023-02-15T11:59:21;75.70;;;37.80;;
25509;SDS011;13413;52.336;21.200;2023-02-15T12:02:23;66.10;;;34.80;;
25509;SDS011;13413;52.336;21.200;2023-02-15T12:05:17;63.10;;;30.90;;
25509;SDS011;13413;52.336;21.200;2023-02-15T12:08:16;63.30;;;31.60;;
25509;SDS011;13413;52.336;21.200;2023-02-15T12:11:12;70.30;;;34.50;;
25509;SDS011;13413;52.336;21.200;2023-02-15T12:14:12;61.80;;;32.20;;
25509;SDS011;13413;52.336;21.200;2023-02-15T12:17:13;51.00;;;25.80;;
25509;SDS011;13413;52.336;21.200;2023-02-15T12:20:20;56.00;;;29.70;;
25509;SDS011;13413;52.336;21.200;2023-02-15T12:23:17;57.50;;;32.40;;
25509;SDS011;13413;52.336;21.200;2023-02-15T12:26:12;58.70;;;30.30;;
25509;SDS011;13413;52.336;21.200;2023-02-15T12:29:15;62.90;;;35.50;;
25509;SDS011;13413;52.336;21.200;2023-02-15T12:32:17;64.20;;;35.40;;
25509;SDS011;13413;52.336;21.200;2023-02-15T12:35:21;68.40;;;35.60;;
25509;SDS011;13413;52.336;21.200;2023-02-15T12:38:23;68.40;;;34.10;;
25509;SDS011;13413;52.336;21.200;2023-02-15T12:41:23;64.70;;;33.50;;
25509;SDS011;13413;52.336;21.200;2023-02-15T12:44:18;67.20;;;32.70;;
25509;SDS011;13413;52.336;21.200;2023-02-15T12:50:14;59.80;;;31.50;;
25509;SDS011;13413;52.336;21.200;2023-02-15T12:53:17;65.70;;;35.10;;
25509;SDS011;13413;52.336;21.200;2023-02-15T12:56:12;70.30;;;37.10;;
25509;SDS011;13413;52.336;21.200;2023-02-15T12:59:18;59.40;;;31.30;;
25509;SDS011;13413;52.336;21.200;2023-02-15T13:02:14;67.20;;;35.40;;
25509;SDS011;13413;52.336;21.200;2023-02-15T13:05:17;71.60;;;37.30;;
25509;SDS011;13413;52.336;21.200;2023-02-15T13:08:17;66.30;;;33.80;;
25509;SDS011;13413;52.336;21.200;2023-02-15T13:11:12;78.90;;;38.40;;
25509;SDS011;13413;52.336;21.200;2023-02-15T13:14:16;73.30;;;38.50;;
25509;SDS011;13413;52.336;21.200;2023-02-15T13:17:12;79.60;;;37.40;;
25509;SDS011;13413;52.336;21.200;2023-02-15T13:20:16;80.50;;;38.40;;
25509;SDS011;13413;52.336;21.200;2023-02-15T13:23:18;64.10;;;32.70;;
25509;SDS011;13413;52.336;21.200;2023-02-15T13:26:18;61.70;;;33.00;;
25509;SDS011;13413;52.336;21.200;2023-02-15T13:29:15;62.90;;;33.00;;
25509;SDS011;13413;52.336;21.200;2023-02-15T13:32:19;90.60;;;45.10;;
25509;SDS011;13413;52.336;21.200;2023-02-15T13:35:20;68.20;;;34.40;;
25509;SDS011;13413;52.336;21.200;2023-02-15T13:38:26;72.10;;;34.20;;
25509;SDS011;13413;52.336;21.200;2023-02-15T13:41:35;69.00;;;33.80;;
25509;SDS011;13413;52.336;21.200;2023-02-15T13:44:48;67.60;;;33.10;;
25509;SDS011;13413;52.336;21.200;2023-02-15T13:47:55;64.30;;;34.90;;
25509;SDS011;13413;52.336;21.200;2023-02-15T13:51:02;69.20;;;36.00;;
25509;SDS011;13413;52.336;21.200;2023-02-15T13:57:35;87.90;;;41.40;;
25509;SDS011;13413;52.336;21.200;2023-02-15T14:00:43;87.80;;;44.60;;
25509;SDS011;13413;52.336;21.200;2023-02-15T14:12:55;92.70;;;43.40;;
25509;SDS011;13413;52.336;21.200;2023-02-15T14:16:13;82.00;;;42.30;;
25509;SDS011;13413;52.336;21.200;2023-02-15T14:19:15;118.00;;;54.80;;
25509;SDS011;13413;52.336;21.200;2023-02-15T14:22:17;103.70;;;50.80;;
25509;SDS011;13413;52.336;21.200;2023-02-15T14:25:20;99.40;;;50.30;;
25509;SDS011;13413;52.336;21.200;2023-02-15T14:28:22;99.30;;;46.10;;
25509;SDS011;13413;52.336;21.200;2023-02-15T14:31:24;81.80;;;36.60;;
25509;SDS011;13413;52.336;21.200;2023-02-15T14:34:23;107.80;;;48.20;;
25509;SDS011;13413;52.336;21.200;2023-02-15T14:37:24;90.10;;;40.70;;
25509;SDS011;13413;52.336;21.200;2023-02-15T14:40:32;133.70;;;52.20;;
25509;SDS011;13413;52.336;21.200;2023-02-15T14:43:41;260.40;;;91.10;;
25509;SDS011;13413;52.336;21.200;2023-02-15T14:46:45;76.30;;;29.20;;
25509;SDS011;13413;52.336;21.200;2023-02-15T14:49:42;130.80;;;50.70;;
25509;SDS011;13413;52.336;21.200;2023-02-15T14:52:37;100.10;;;46.80;;
25509;SDS011;13413;52.336;21.200;2023-02-15T14:59:19;80.40;;;40.30;;
25509;SDS011;13413;52.336;21.200;2023-02-15T15:02:15;77.80;;;39.40;;
25509;SDS011;13413;52.336;21.200;2023-02-15T15:05:14;77.50;;;39.50;;
25509;SDS011;13413;52.336;21.200;2023-02-15T15:08:19;88.30;;;42.20;;
25509;SDS011;13413;52.336;21.200;2023-02-15T15:14:37;86.40;;;40.30;;
25509;SDS011;13413;52.336;21.200;2023-02-15T15:20:49;78.50;;;38.60;;
25509;SDS011;13413;52.336;21.200;2023-02-15T15:23:44;89.30;;;40.90;;
25509;SDS011;13413;52.336;21.200;2023-02-15T15:26:37;88.30;;;39.60;;
25509;SDS011;13413;52.336;21.200;2023-02-15T15:29:40;78.90;;;38.60;;
25509;SDS011;13413;52.336;21.200;2023-02-15T15:32:34;78.50;;;39.00;;
25509;SDS011;13413;52.336;21.200;2023-02-15T15:35:33;81.20;;;42.50;;
25509;SDS011;13413;52.336;21.200;2023-02-15T15:38:33;84.80;;;39.40;;
25509;SDS011;13413;52.336;21.200;2023-02-15T15:41:41;87.50;;;43.00;;
25509;SDS011;13413;52.336;21.200;2023-02-15T15:51:33;109.30;;;49.40;;
25509;SDS011;13413;52.336;21.200;2023-02-15T15:54:30;96.70;;;44.40;;
25509;SDS011;13413;52.336;21.200;2023-02-15T15:57:25;94.00;;;44.50;;
25509;SDS011;13413;52.336;21.200;2023-02-15T16:00:27;95.80;;;41.40;;
25509;SDS011;13413;52.336;21.200;2023-02-15T16:03:27;94.30;;;45.00;;
25509;SDS011;13413;52.336;21.200;2023-02-15T16:09:22;101.90;;;46.90;;
25509;SDS011;13413;52.336;21.200;2023-02-15T16:12:17;96.50;;;47.50;;
25509;SDS011;13413;52.336;21.200;2023-02-15T16:15:14;103.70;;;45.50;;
25509;SDS011;13413;52.336;21.200;2023-02-15T16:18:10;91.00;;;42.50;;
25509;SDS011;13413;52.336;21.200;2023-02-15T16:21:14;69.30;;;32.00;;
25509;SDS011;13413;52.336;21.200;2023-02-15T16:32:05;86.90;;;38.30;;
25509;SDS011;13413;52.336;21.200;2023-02-15T16:35:29;101.00;;;43.00;;
25509;SDS011;13413;52.336;21.200;2023-02-15T16:38:26;83.30;;;35.00;;
25509;SDS011;13413;52.336;21.200;2023-02-15T16:41:43;102.40;;;43.40;;
25509;SDS011;13413;52.336;21.200;2023-02-15T16:44:38;98.20;;;40.40;;
25509;SDS011;13413;52.336;21.200;2023-02-15T16:47:34;80.00;;;37.00;;
25509;SDS011;13413;52.336;21.200;2023-02-15T16:50:33;88.60;;;41.70;;
25509;SDS011;13413;52.336;21.200;2023-02-15T16:53:28;86.00;;;40.50;;
25509;SDS011;13413;52.336;21.200;2023-02-15T16:56:24;96.00;;;43.40;;
25509;SDS011;13413;52.336;21.200;2023-02-15T16:59:21;117.30;;;52.00;;
25509;SDS011;13413;52.336;21.200;2023-02-15T17:02:25;107.30;;;50.70;;
25509;SDS011;13413;52.336;21.200;2023-02-15T17:05:21;101.70;;;47.60;;
25509;SDS011;13413;52.336;21.200;2023-02-15T17:11:20;82.40;;;38.10;;
25509;SDS011;13413;52.336;21.200;2023-02-15T17:14:28;91.70;;;44.30;;
25509;SDS011;13413;52.336;21.200;2023-02-15T17:17:23;96.70;;;43.90;;
25509;SDS011;13413;52.336;21.200;2023-02-15T17:20:17;95.80;;;38.70;;
25509;SDS011;13413;52.336;21.200;2023-02-15T17:23:21;91.10;;;43.40;;
25509;SDS011;13413;52.336;21.200;2023-02-15T17:26:21;90.50;;;43.50;;
25509;SDS011;13413;52.336;21.200;2023-02-15T17:29:18;80.70;;;40.50;;
25509;SDS011;13413;52.336;21.200;2023-02-15T17:32:19;95.90;;;47.30;;
25509;SDS011;13413;52.336;21.200;2023-02-15T17:35:18;170.40;;;62.90;;
25509;SDS011;13413;52.336;21.200;2023-02-15T17:38:17;167.30;;;59.20;;
25509;SDS011;13413;52.336;21.200;2023-02-15T17:41:12;186.20;;;78.80;;
25509;SDS011;13413;52.336;21.200;2023-02-15T17:44:05;205.20;;;79.10;;
25509;SDS011;13413;52.336;21.200;2023-02-15T17:47:00;160.30;;;56.40;;
25509;SDS011;13413;52.336;21.200;2023-02-15T17:49:55;198.60;;;75.20;;
25509;SDS011;13413;52.336;21.200;2023-02-15T17:52:49;246.90;;;85.40;;
25509;SDS011;13413;52.336;21.200;2023-02-15T17:55:43;117.80;;;60.30;;
25509;SDS011;13413;52.336;21.200;2023-02-15T17:58:38;117.70;;;53.60;;
25509;SDS011;13413;52.336;21.200;2023-02-15T18:01:32;104.10;;;42.30;;
25509;SDS011;13413;52.336;21.200;2023-02-15T18:04:26;102.90;;;49.70;;
25509;SDS011;13413;52.336;21.200;2023-02-15T18:07:19;86.40;;;42.70;;
25509;SDS011;13413;52.336;21.200;2023-02-15T18:10:14;75.50;;;37.00;;
25509;SDS011;13413;52.336;21.200;2023-02-15T18:13:09;95.60;;;45.00;;
25509;SDS011;13413;52.336;21.200;2023-02-15T18:16:03;95.60;;;48.80;;
25509;SDS011;13413;52.336;21.200;2023-02-15T18:19:01;85.50;;;42.10;;
25509;SDS011;13413;52.336;21.200;2023-02-15T18:24:48;92.10;;;43.60;;
25509;SDS011;13413;52.336;21.200;2023-02-15T18:27:42;93.60;;;48.30;;
25509;SDS011;13413;52.336;21.200;2023-02-15T18:30:37;99.90;;;47.80;;
25509;SDS011;13413;52.336;21.200;2023-02-15T18:33:48;104.90;;;52.90;;
25509;SDS011;13413;52.336;21.200;2023-02-15T18:36:44;77.60;;;35.00;;
25509;SDS011;13413;52.336;21.200;2023-02-15T18:56:35;72.10;;;34.30;;
25509;SDS011;13413;52.336;21.200;2023-02-15T18:59:28;76.90;;;41.30;;
25509;SDS011;13413;52.336;21.200;2023-02-15T19:02:22;74.20;;;39.50;;
25509;SDS011;13413;52.336;21.200;2023-02-15T19:05:17;86.70;;;43.70;;
25509;SDS011;13413;52.336;21.200;2023-02-15T19:08:16;93.80;;;44.70;;
25509;SDS011;13413;52.336;21.200;2023-02-15T19:11:13;91.00;;;43.80;;
25509;SDS011;13413;52.336;21.200;2023-02-15T19:14:11;85.10;;;43.60;;
25509;SDS011;13413;52.336;21.200;2023-02-15T19:17:16;89.30;;;42.20;;
25509;SDS011;13413;52.336;21.200;2023-02-15T19:20:16;87.00;;;44.90;;
25509;SDS011;13413;52.336;21.200;2023-02-15T19:23:13;87.10;;;42.30;;
25509;SDS011;13413;52.336;21.200;2023-02-15T19:26:10;80.50;;;40.80;;
25509;SDS011;13413;52.336;21.200;2023-02-15T19:29:03;83.30;;;40.80;;